sensor_id;sensor_type;location;lat;lon;timestamp;pressure;altitude;pressure_sealevel;temperature;humidity
77281;BME280;66339;47.262;17.144;2023-05-17T00:00:11;99479.12;;;19.28;57.03
77281;BME280;66339;47.262;17.144;2023-05-17T00:02:39;99483.69;;;19.28;57.00
77281;BME280;66339;47.262;17.144;2023-05-17T00:05:15;99477.53;;;19.27;57.04
77281;BME280;66339;47.262;17.144;2023-05-17T00:07:42;99488.28;;;19.27;57.06
77281;BME280;66339;47.262;17.144;2023-05-17T00:10:12;99492.84;;;19.27;57.08
77281;BME280;66339;47.262;17.144;2023-05-17T00:12:39;99492.84;;;19.27;57.06
77281;BME280;66339;47.262;17.144;2023-05-17T00:15:09;99487.47;;;19.27;57.05
77281;BME280;66339;47.262;17.144;2023-05-17T00:17:36;99480.53;;;19.26;57.06
77281;BME280;66339;47.262;17.144;2023-05-17T00:20:09;99478.62;;;19.26;57.06
77281;BME280;66339;47.262;17.144;2023-05-17T00:22:45;99489.63;;;19.25;57.10
77281;BME280;66339;47.262;17.144;2023-05-17T00:25:12;99488.06;;;19.24;57.03
77281;BME280;66339;47.262;17.144;2023-05-17T00:27:42;99488.06;;;19.24;57.16
77281;BME280;66339;47.262;17.144;2023-05-17T00:30:09;99493.41;;;19.24;57.14
77281;BME280;66339;47.262;17.144;2023-05-17T00:32:42;99493.41;;;19.24;57.14
77281;BME280;66339;47.262;17.144;2023-05-17T00:35:10;99497.19;;;19.23;57.09
77281;BME280;66339;47.262;17.144;2023-05-17T00:37:37;99499.88;;;19.23;57.07
77281;BME280;66339;47.262;17.144;2023-05-17T00:40:07;99501.75;;;19.22;57.15
77281;BME280;66339;47.262;17.144;2023-05-17T00:42:34;99496.41;;;19.22;57.12
77281;BME280;66339;47.262;17.144;2023-05-17T00:45:04;99495.63;;;19.22;57.02
77281;BME280;66339;47.262;17.144;2023-05-17T00:47:34;99495.88;;;19.20;57.13
77281;BME280;66339;47.262;17.144;2023-05-17T00:50:01;99507.41;;;19.21;57.06
77281;BME280;66339;47.262;17.144;2023-05-17T00:52:31;99510.09;;;19.21;57.14
77281;BME280;66339;47.262;17.144;2023-05-17T00:55:02;99494.00;;;19.21;57.05
77281;BME280;66339;47.262;17.144;2023-05-17T00:57:35;99505.31;;;19.18;57.10
77281;BME280;66339;47.262;17.144;2023-05-17T01:00:09;99511.50;;;19.18;57.10
77281;BME280;66339;47.262;17.144;2023-05-17T01:02:35;99503.13;;;19.20;57.09
77281;BME280;66339;47.262;17.144;2023-05-17T01:05:03;99502.03;;;19.21;57.17
77281;BME280;66339;47.262;17.144;2023-05-17T01:07:33;99498.56;;;19.20;57.00
77281;BME280;66339;47.262;17.144;2023-05-17T01:10:00;99500.75;;;19.18;56.97
77281;BME280;66339;47.262;17.144;2023-05-17T01:12:43;99503.72;;;19.17;57.00
77281;BME280;66339;47.262;17.144;2023-05-17T01:15:18;99488.72;;;19.16;57.00
77281;BME280;66339;47.262;17.144;2023-05-17T01:20:35;99495.69;;;19.17;56.92
77281;BME280;66339;47.262;17.144;2023-05-17T01:25:41;99505.13;;;19.14;57.04
77281;BME280;66339;47.262;17.144;2023-05-17T01:28:13;99504.03;;;19.15;56.96
77281;BME280;66339;47.262;17.144;2023-05-17T01:30:43;99511.28;;;19.15;57.01
77281;BME280;66339;47.262;17.144;2023-05-17T01:33:17;99514.75;;;19.15;56.98
77281;BME280;66339;47.262;17.144;2023-05-17T01:35:50;99509.66;;;19.13;57.01
77281;BME280;66339;47.262;17.144;2023-05-17T01:38:16;99515.03;;;19.13;57.03
77281;BME280;66339;47.262;17.144;2023-05-17T01:43:41;99506.50;;;19.11;57.02
77281;BME280;66339;47.262;17.144;2023-05-17T01:51:48;99518.00;;;19.12;57.13
77281;BME280;66339;47.262;17.144;2023-05-17T01:54:20;99518.31;;;19.10;57.09
77281;BME280;66339;47.262;17.144;2023-05-17T01:56:51;99526.34;;;19.10;57.02
77281;BME280;66339;47.262;17.144;2023-05-17T01:59:23;99523.16;;;19.08;57.10
77281;BME280;66339;47.262;17.144;2023-05-17T02:01:54;99515.09;;;19.08;57.25
77281;BME280;66339;47.262;17.144;2023-05-17T02:04:23;99529.31;;;19.09;57.09
77281;BME280;66339;47.262;17.144;2023-05-17T02:06:53;99519.38;;;19.09;57.06
77281;BME280;66339;47.262;17.144;2023-05-17T02:09:20;99518.59;;;19.09;56.97
77281;BME280;66339;47.262;17.144;2023-05-17T02:11:47;99523.94;;;19.09;57.11
77281;BME280;66339;47.262;17.144;2023-05-17T02:14:17;99533.06;;;19.08;57.19
77281;BME280;66339;47.262;17.144;2023-05-17T02:16:45;99543.81;;;19.08;57.15
77281;BME280;66339;47.262;17.144;2023-05-17T02:19:12;99536.56;;;19.08;57.29
77281;BME280;66339;47.262;17.144;2023-05-17T02:21:42;99540.31;;;19.07;56.99
77281;BME280;66339;47.262;17.144;2023-05-17T02:24:14;99546.78;;;19.06;57.04
77281;BME280;66339;47.262;17.144;2023-05-17T02:26:41;99530.69;;;19.06;56.95
77281;BME280;66339;47.262;17.144;2023-05-17T02:29:08;99541.41;;;19.06;57.17
77281;BME280;66339;47.262;17.144;2023-05-17T02:31:41;99535.25;;;19.06;57.00
77281;BME280;66339;47.262;17.144;2023-05-17T02:34:15;99545.16;;;19.05;57.03
77281;BME280;66339;47.262;17.144;2023-05-17T02:36:45;99556.69;;;19.06;57.05
77281;BME280;66339;47.262;17.144;2023-05-17T02:39:12;99561.25;;;19.05;57.13
77281;BME280;66339;47.262;17.144;2023-05-17T02:41:45;99561.25;;;19.05;57.04
77281;BME280;66339;47.262;17.144;2023-05-17T02:44:12;99565.03;;;19.04;57.02
77281;BME280;66339;47.262;17.144;2023-05-17T02:46:43;99563.12;;;19.05;57.08
77281;BME280;66339;47.262;17.144;2023-05-17T02:49:13;99574.94;;;19.04;57.07
77281;BME280;66339;47.262;17.144;2023-05-17T02:51:43;99579.53;;;19.03;57.09
77281;BME280;66339;47.262;17.144;2023-05-17T02:54:13;99578.44;;;19.04;57.06
77281;BME280;66339;47.262;17.144;2023-05-17T02:56:39;99593.41;;;19.05;57.08
77281;BME280;66339;47.262;17.144;2023-05-17T02:59:12;99587.25;;;19.05;57.08
77281;BME280;66339;47.262;17.144;2023-05-17T03:01:42;99591.59;;;19.01;57.12
77281;BME280;66339;47.262;17.144;2023-05-17T03:04:08;99589.44;;;19.03;56.96
77281;BME280;66339;47.262;17.144;2023-05-17T03:06:43;99587.84;;;19.02;56.97
77281;BME280;66339;47.262;17.144;2023-05-17T03:09:09;99589.44;;;19.03;56.88
77281;BME280;66339;47.262;17.144;2023-05-17T03:11:37;99593.19;;;19.02;56.88
77281;BME280;66339;47.262;17.144;2023-05-17T03:14:06;99598.56;;;19.02;56.83
77281;BME280;66339;47.262;17.144;2023-05-17T03:16:33;99603.13;;;19.01;56.84
77281;BME280;66339;47.262;17.144;2023-05-17T03:19:00;99608.47;;;19.01;56.74
77281;BME280;66339;47.262;17.144;2023-05-17T03:21:33;99610.09;;;19.02;56.71
77281;BME280;66339;47.262;17.144;2023-05-17T03:24:01;99615.47;;;19.02;56.70
77281;BME280;66339;47.262;17.144;2023-05-17T03:26:31;99615.47;;;19.02;56.70
77281;BME280;66339;47.262;17.144;2023-05-17T03:29:01;99628.34;;;19.00;56.74
77281;BME280;66339;47.262;17.144;2023-05-17T03:31:28;99628.34;;;19.00;56.73
77281;BME280;66339;47.262;17.144;2023-05-17T03:33:55;99649.78;;;19.00;56.69
77281;BME280;66339;47.262;17.144;2023-05-17T03:36:25;99650.87;;;18.99;56.79
77281;BME280;66339;47.262;17.144;2023-05-17T03:38:52;99646.59;;;18.98;56.73
77281;BME280;66339;47.262;17.144;2023-05-17T03:41:22;99645.78;;;18.98;56.77
77281;BME280;66339;47.262;17.144;2023-05-17T03:43:52;99644.19;;;18.97;56.87
77281;BME280;66339;47.262;17.144;2023-05-17T03:46:19;99652.53;;;18.95;56.83
77281;BME280;66339;47.262;17.144;2023-05-17T03:48:46;99654.62;;;18.98;56.95
77281;BME280;66339;47.262;17.144;2023-05-17T03:51:19;99652.75;;;18.99;56.89
77281;BME280;66339;47.262;17.144;2023-05-17T03:53:55;99657.31;;;18.98;56.81
77281;BME280;66339;47.262;17.144;2023-05-17T03:56:28;99655.69;;;18.97;56.89
77281;BME280;66339;47.262;17.144;2023-05-17T03:58:58;99662.69;;;18.98;56.79
77281;BME280;66339;47.262;17.144;2023-05-17T04:01:28;99660.28;;;18.97;56.82
77281;BME280;66339;47.262;17.144;2023-05-17T04:04:01;99672.56;;;18.98;56.80
77281;BME280;66339;47.262;17.144;2023-05-17T04:06:30;99677.94;;;18.98;56.80
77281;BME280;66339;47.262;17.144;2023-05-17T04:09:04;99684.12;;;18.98;56.81
77281;BME280;66339;47.262;17.144;2023-05-17T04:11:31;99695.91;;;18.97;56.94
77281;BME280;66339;47.262;17.144;2023-05-17T04:14:01;99702.28;;;19.01;56.97
77281;BME280;66339;47.262;17.144;2023-05-17T04:16:27;99697.44;;;19.03;57.00
77281;BME280;66339;47.262;17.144;2023-05-17T04:18:55;99696.87;;;19.06;56.92
77281;BME280;66339;47.262;17.144;2023-05-17T04:21:27;99699.25;;;19.08;57.11
77281;BME280;66339;47.262;17.144;2023-05-17T04:23:54;99700.56;;;19.10;57.17
77281;BME280;66339;47.262;17.144;2023-05-17T04:26:25;99708.03;;;19.13;57.08
77281;BME280;66339;47.262;17.144;2023-05-17T04:29:01;99712.03;;;19.16;57.10
77281;BME280;66339;47.262;17.144;2023-05-17T04:31:34;99717.59;;;19.20;57.18
77281;BME280;66339;47.262;17.144;2023-05-17T04:34:04;99721.88;;;19.21;57.18
77281;BME280;66339;47.262;17.144;2023-05-17T04:36:35;99726.19;;;19.22;57.19
77281;BME280;66339;47.262;17.144;2023-05-17T04:39:02;99707.91;;;19.24;57.16
77281;BME280;66339;47.262;17.144;2023-05-17T04:41:34;99709.22;;;19.26;57.04
77281;BME280;66339;47.262;17.144;2023-05-17T04:44:04;99702.75;;;19.27;57.00
77281;BME280;66339;47.262;17.144;2023-05-17T04:46:37;99712.31;;;19.33;56.79
77281;BME280;66339;47.262;17.144;2023-05-17T04:49:07;99706.16;;;19.33;56.80
77281;BME280;66339;47.262;17.144;2023-05-17T04:51:35;99706.94;;;19.33;56.81
77281;BME280;66339;47.262;17.144;2023-05-17T04:54:04;99695.97;;;19.35;56.87
77281;BME280;66339;47.262;17.144;2023-05-17T04:56:33;99708.78;;;19.38;57.15
77281;BME280;66339;47.262;17.144;2023-05-17T04:59:06;99710.38;;;19.39;57.19
77281;BME280;66339;47.262;17.144;2023-05-17T05:01:37;99712.75;;;19.41;57.20
77281;BME280;66339;47.262;17.144;2023-05-17T05:04:07;99717.84;;;19.42;57.20
77281;BME280;66339;47.262;17.144;2023-05-17T05:06:34;99732.84;;;19.43;57.16
77281;BME280;66339;47.262;17.144;2023-05-17T05:09:04;99722.12;;;19.43;57.02
77281;BME280;66339;47.262;17.144;2023-05-17T05:11:34;99719.94;;;19.45;57.00
77281;BME280;66339;47.262;17.144;2023-05-17T05:14:02;99737.13;;;19.44;56.97
77281;BME280;66339;47.262;17.144;2023-05-17T05:16:29;99733.87;;;19.47;56.92
77281;BME280;66339;47.262;17.144;2023-05-17T05:18:56;99742.72;;;19.48;56.91
77281;BME280;66339;47.262;17.144;2023-05-17T05:21:27;99745.12;;;19.49;57.18
77281;BME280;66339;47.262;17.144;2023-05-17T05:24:03;99741.84;;;19.52;57.21
77281;BME280;66339;47.262;17.144;2023-05-17T05:26:30;99742.34;;;19.54;57.22
77281;BME280;66339;47.262;17.144;2023-05-17T05:29:03;99759.53;;;19.53;56.97
77281;BME280;66339;47.262;17.144;2023-05-17T05:31:30;99745.03;;;19.54;56.87
77281;BME280;66339;47.262;17.144;2023-05-17T05:33:59;99756.56;;;19.55;56.91
77281;BME280;66339;47.262;17.144;2023-05-17T05:36:27;99772.09;;;19.58;56.72
77281;BME280;66339;47.262;17.144;2023-05-17T05:38:54;99776.06;;;19.60;56.70
77281;BME280;66339;47.262;17.144;2023-05-17T05:41:21;99773.66;;;19.59;56.73
77281;BME280;66339;47.262;17.144;2023-05-17T05:43:58;99782.50;;;19.59;56.66
77281;BME280;66339;47.262;17.144;2023-05-17T05:46:25;99779.03;;;19.59;56.54
77281;BME280;66339;47.262;17.144;2023-05-17T05:48:57;99785.19;;;19.59;56.48
77281;BME280;66339;47.262;17.144;2023-05-17T05:51:27;99788.97;;;19.58;56.46
77281;BME280;66339;47.262;17.144;2023-05-17T05:53:54;99786.53;;;19.62;56.22
77281;BME280;66339;47.262;17.144;2023-05-17T05:56:21;99792.16;;;19.60;55.96
77281;BME280;66339;47.262;17.144;2023-05-17T05:58:50;99781.41;;;19.60;56.12
77281;BME280;66339;47.262;17.144;2023-05-17T06:01:20;99788.97;;;19.58;55.98
77281;BME280;66339;47.262;17.144;2023-05-17T06:03:52;99793.53;;;19.58;55.95
77281;BME280;66339;47.262;17.144;2023-05-17T06:06:22;99803.47;;;19.57;56.03
77281;BME280;66339;47.262;17.144;2023-05-17T06:08:53;99814.22;;;19.57;55.86
77281;BME280;66339;47.262;17.144;2023-05-17T06:11:25;99812.59;;;19.56;55.81
77281;BME280;66339;47.262;17.144;2023-05-17T06:13:52;99819.06;;;19.55;55.80
77281;BME280;66339;47.262;17.144;2023-05-17T06:16:26;99818.56;;;19.53;56.11
77281;BME280;66339;47.262;17.144;2023-05-17T06:18:59;99813.19;;;19.53;56.37
77281;BME280;66339;47.262;17.144;2023-05-17T06:21:26;99827.66;;;19.52;56.39
77281;BME280;66339;47.262;17.144;2023-05-17T06:23:53;99830.66;;;19.51;56.60
77281;BME280;66339;47.262;17.144;2023-05-17T06:26:20;99827.19;;;19.50;56.05
77281;BME280;66339;47.262;17.144;2023-05-17T06:28:55;99826.66;;;19.48;55.94
77281;BME280;66339;47.262;17.144;2023-05-17T06:31:25;99820.78;;;19.46;55.82
77281;BME280;66339;47.262;17.144;2023-05-17T06:33:55;99828.84;;;19.46;55.67
77281;BME280;66339;47.262;17.144;2023-05-17T06:36:26;99832.56;;;19.45;55.82
77281;BME280;66339;47.262;17.144;2023-05-17T06:38:53;99833.66;;;19.44;55.82
77281;BME280;66339;47.262;17.144;2023-05-17T06:41:22;99847.09;;;19.44;56.00
77281;BME280;66339;47.262;17.144;2023-05-17T06:43:49;99854.63;;;19.42;56.41
77281;BME280;66339;47.262;17.144;2023-05-17T06:46:16;99849.28;;;19.42;56.29
77281;BME280;66339;47.262;17.144;2023-05-17T06:48:51;99862.94;;;19.41;56.20
77281;BME280;66339;47.262;17.144;2023-05-17T06:51:18;99869.09;;;19.41;56.47
77281;BME280;66339;47.262;17.144;2023-05-17T06:53:45;99872.88;;;19.40;55.97
77281;BME280;66339;47.262;17.144;2023-05-17T06:56:15;99872.09;;;19.40;55.67
77281;BME280;66339;47.262;17.144;2023-05-17T06:58:44;99882.00;;;19.39;55.63
77281;BME280;66339;47.262;17.144;2023-05-17T07:01:12;99887.37;;;19.39;55.50
77281;BME280;66339;47.262;17.144;2023-05-17T07:03:39;99879.63;;;19.37;55.51
77281;BME280;66339;47.262;17.144;2023-05-17T07:06:06;99879.91;;;19.36;55.51
77281;BME280;66339;47.262;17.144;2023-05-17T07:08:34;99877.22;;;19.36;55.49
77281;BME280;66339;47.262;17.144;2023-05-17T07:11:03;99886.34;;;19.35;55.67
77281;BME280;66339;47.262;17.144;2023-05-17T07:13:30;99900.84;;;19.34;55.60
77281;BME280;66339;47.262;17.144;2023-05-17T07:15:57;99893.87;;;19.33;55.39
77281;BME280;66339;47.262;17.144;2023-05-17T07:18:33;99895.75;;;19.32;55.32
77281;BME280;66339;47.262;17.144;2023-05-17T07:21:03;99909.16;;;19.32;55.48
77281;BME280;66339;47.262;17.144;2023-05-17T07:23:30;99902.22;;;19.31;55.38
77281;BME280;66339;47.262;17.144;2023-05-17T07:26:00;99904.88;;;19.31;55.44
77281;BME280;66339;47.262;17.144;2023-05-17T07:28:31;99904.09;;;19.31;55.41
77281;BME280;66339;47.262;17.144;2023-05-17T07:30:57;99902.78;;;19.28;55.30
77281;BME280;66339;47.262;17.144;2023-05-17T07:33:27;99908.94;;;19.29;55.29
77281;BME280;66339;47.262;17.144;2023-05-17T07:35:58;99900.09;;;19.28;55.36
77281;BME280;66339;47.262;17.144;2023-05-17T07:38:28;99915.38;;;19.28;55.23
77281;BME280;66339;47.262;17.144;2023-05-17T07:40:58;99911.91;;;19.27;55.38
77281;BME280;66339;47.262;17.144;2023-05-17T07:43:28;99907.34;;;19.28;55.19
77281;BME280;66339;47.262;17.144;2023-05-17T07:45:55;99925.59;;;19.26;55.14
77281;BME280;66339;47.262;17.144;2023-05-17T07:48:22;99929.34;;;19.25;55.15
77281;BME280;66339;47.262;17.144;2023-05-17T07:50:51;99935.50;;;19.25;55.25
77281;BME280;66339;47.262;17.144;2023-05-17T07:53:19;99932.03;;;19.25;55.15
77281;BME280;66339;47.262;17.144;2023-05-17T07:55:45;99920.81;;;19.23;55.22
77281;BME280;66339;47.262;17.144;2023-05-17T07:58:15;99926.16;;;19.23;55.10
77281;BME280;66339;47.262;17.144;2023-05-17T08:00:45;99929.94;;;19.22;55.11
77281;BME280;66339;47.262;17.144;2023-05-17T08:03:12;99924.56;;;19.22;55.11
77281;BME280;66339;47.262;17.144;2023-05-17T08:05:46;99929.41;;;19.20;55.11
77281;BME280;66339;47.262;17.144;2023-05-17T08:08:18;99931.28;;;19.19;55.05
77281;BME280;66339;47.262;17.144;2023-05-17T08:10:47;99935.84;;;19.19;55.01
77281;BME280;66339;47.262;17.144;2023-05-17T08:13:21;99931.06;;;19.16;55.10
77281;BME280;66339;47.262;17.144;2023-05-17T08:15:56;99941.78;;;19.16;55.08
77281;BME280;66339;47.262;17.144;2023-05-17T08:18:40;99946.06;;;19.17;54.99
77281;BME280;66339;47.262;17.144;2023-05-17T08:21:10;99951.72;;;19.15;55.04
77281;BME280;66339;47.262;17.144;2023-05-17T08:23:37;99947.13;;;19.16;55.02
77281;BME280;66339;47.262;17.144;2023-05-17T08:26:07;99947.94;;;19.16;55.06
77281;BME280;66339;47.262;17.144;2023-05-17T08:28:33;99959.75;;;19.15;55.03
77281;BME280;66339;47.262;17.144;2023-05-17T08:31:00;99939.41;;;19.14;54.94
77281;BME280;66339;47.262;17.144;2023-05-17T08:33:27;99939.41;;;19.14;55.02
77281;BME280;66339;47.262;17.144;2023-05-17T08:35:58;99948.50;;;19.13;55.06
77281;BME280;66339;47.262;17.144;2023-05-17T08:38:25;99931.63;;;19.12;55.03
77281;BME280;66339;47.262;17.144;2023-05-17T08:40:55;99938.56;;;19.13;54.93
77281;BME280;66339;47.262;17.144;2023-05-17T08:43:25;99948.78;;;19.11;55.09
77281;BME280;66339;47.262;17.144;2023-05-17T08:45:54;99957.91;;;19.10;55.06
77281;BME280;66339;47.262;17.144;2023-05-17T08:48:23;99956.81;;;19.11;55.11
77281;BME280;66339;47.262;17.144;2023-05-17T08:50:50;99944.50;;;19.10;55.01
77281;BME280;66339;47.262;17.144;2023-05-17T08:53:20;99955.25;;;19.10;55.00
77281;BME280;66339;47.262;17.144;2023-05-17T08:55:50;99971.31;;;19.10;55.04
77281;BME280;66339;47.262;17.144;2023-05-17T08:58:24;99958.97;;;19.09;54.96
77281;BME280;66339;47.262;17.144;2023-05-17T09:00:55;99965.97;;;19.10;54.98
77281;BME280;66339;47.262;17.144;2023-05-17T09:03:21;99958.97;;;19.09;54.97
77281;BME280;66339;47.262;17.144;2023-05-17T09:05:49;99960.59;;;19.10;54.98
77281;BME280;66339;47.262;17.144;2023-05-17T09:08:20;99964.06;;;19.11;54.84
77281;BME280;66339;47.262;17.144;2023-05-17T09:10:47;99975.06;;;19.09;54.92
77281;BME280;66339;47.262;17.144;2023-05-17T09:13:17;99991.16;;;19.09;54.96
77281;BME280;66339;47.262;17.144;2023-05-17T09:15:46;99996.50;;;19.09;54.85
77281;BME280;66339;47.262;17.144;2023-05-17T09:18:13;99992.22;;;19.08;54.89
77281;BME280;66339;47.262;17.144;2023-05-17T09:20:49;100010.50;;;19.06;54.91
77281;BME280;66339;47.262;17.144;2023-05-17T09:23:17;100005.63;;;19.08;54.80
77281;BME280;66339;47.262;17.144;2023-05-17T09:25:46;100006.72;;;19.07;54.85
77281;BME280;66339;47.262;17.144;2023-05-17T09:28:19;99999.78;;;19.06;54.74
77281;BME280;66339;47.262;17.144;2023-05-17T09:30:47;100012.34;;;19.06;54.86
77281;BME280;66339;47.262;17.144;2023-05-17T09:33:14;100016.13;;;19.05;54.65
77281;BME280;66339;47.262;17.144;2023-05-17T09:35:47;100010.50;;;19.01;54.05
77281;BME280;66339;47.262;17.144;2023-05-17T09:38:15;100015.38;;;18.99;54.34
77281;BME280;66339;47.262;17.144;2023-05-17T09:40:43;100016.97;;;19.00;54.75
77281;BME280;66339;47.262;17.144;2023-05-17T09:43:13;100012.94;;;19.03;55.13
77281;BME280;66339;47.262;17.144;2023-05-17T09:45:43;100024.44;;;19.03;55.43
77281;BME280;66339;47.262;17.144;2023-05-17T09:48:16;100017.94;;;19.09;55.35
77281;BME280;66339;47.262;17.144;2023-05-17T09:50:44;100022.25;;;19.10;55.15
77281;BME280;66339;47.262;17.144;2023-05-17T09:53:30;100019.56;;;19.10;55.06
77281;BME280;66339;47.262;17.144;2023-05-17T09:56:08;100020.63;;;19.15;55.05
77281;BME280;66339;47.262;17.144;2023-05-17T09:58:37;100027.56;;;19.16;54.90
77281;BME280;66339;47.262;17.144;2023-05-17T10:01:07;100031.84;;;19.17;55.14
77281;BME280;66339;47.262;17.144;2023-05-17T10:03:40;100032.63;;;19.17;55.34
77281;BME280;66339;47.262;17.144;2023-05-17T10:06:09;100032.38;;;19.19;55.44
77281;BME280;66339;47.262;17.144;2023-05-17T10:09:06;100029.69;;;19.19;55.68
77281;BME280;66339;47.262;17.144;2023-05-17T10:11:35;100035.06;;;19.19;55.88
77281;BME280;66339;47.262;17.144;2023-05-17T10:14:10;100040.13;;;19.20;55.91
77281;BME280;66339;47.262;17.144;2023-05-17T10:16:43;100042.00;;;19.20;55.74
77281;BME280;66339;47.262;17.144;2023-05-17T10:19:13;100047.91;;;19.22;55.76
77281;BME280;66339;47.262;17.144;2023-05-17T10:21:42;100051.66;;;19.21;55.76
77281;BME280;66339;47.262;17.144;2023-05-17T10:24:13;100057.00;;;19.21;55.69
77281;BME280;66339;47.262;17.144;2023-05-17T10:26:44;100048.47;;;19.19;56.06
77281;BME280;66339;47.262;17.144;2023-05-17T10:29:15;100071.50;;;19.20;55.81
77281;BME280;66339;47.262;17.144;2023-05-17T10:31:45;100086.25;;;19.22;55.80
77281;BME280;66339;47.262;17.144;2023-05-17T10:34:15;100090.81;;;19.22;56.22
77281;BME280;66339;47.262;17.144;2023-05-17T10:36:49;100092.41;;;19.23;56.18
77281;BME280;66339;47.262;17.144;2023-05-17T10:39:17;100099.13;;;19.20;55.93
77281;BME280;66339;47.262;17.144;2023-05-17T10:41:51;100099.91;;;19.21;55.90
77281;BME280;66339;47.262;17.144;2023-05-17T10:44:39;100110.63;;;19.21;55.83
77281;BME280;66339;47.262;17.144;2023-05-17T10:47:09;100104.75;;;19.19;55.84
77281;BME280;66339;47.262;17.144;2023-05-17T10:49:40;100095.63;;;19.20;55.91
77281;BME280;66339;47.262;17.144;2023-05-17T10:52:15;100114.69;;;19.18;55.79
77281;BME280;66339;47.262;17.144;2023-05-17T10:54:43;100097.28;;;19.16;55.84
77281;BME280;66339;47.262;17.144;2023-05-17T11:00:19;100107.19;;;19.15;55.66
77281;BME280;66339;47.262;17.144;2023-05-17T11:02:47;100114.44;;;19.15;55.49
77281;BME280;66339;47.262;17.144;2023-05-17T11:05:26;100113.91;;;19.12;55.27
77281;BME280;66339;47.262;17.144;2023-05-17T11:08:16;100114.72;;;19.13;55.11
77281;BME280;66339;47.262;17.144;2023-05-17T11:13:30;100119.81;;;19.09;55.84
77281;BME280;66339;47.262;17.144;2023-05-17T11:16:02;100103.72;;;19.09;55.44
77281;BME280;66339;47.262;17.144;2023-05-17T11:18:48;100104.81;;;19.08;55.17
77281;BME280;66339;47.262;17.144;2023-05-17T11:21:22;100099.47;;;19.08;55.04
77281;BME280;66339;47.262;17.144;2023-05-17T11:23:57;100100.53;;;19.07;54.98
77281;BME280;66339;47.262;17.144;2023-05-17T11:26:32;100089.81;;;19.07;55.06
77281;BME280;66339;47.262;17.144;2023-05-17T11:29:08;100099.47;;;19.08;55.10
77281;BME280;66339;47.262;17.144;2023-05-17T11:31:41;100104.03;;;19.08;55.00
77281;BME280;66339;47.262;17.144;2023-05-17T11:34:16;100106.72;;;19.08;55.20
77281;BME280;66339;47.262;17.144;2023-05-17T11:36:51;100120.09;;;19.08;55.07
77281;BME280;66339;47.262;17.144;2023-05-17T11:39:20;100124.69;;;19.07;54.38
77281;BME280;66339;47.262;17.144;2023-05-17T11:41:52;100127.91;;;19.04;54.36
77281;BME280;66339;47.262;17.144;2023-05-17T11:44:32;100132.47;;;19.04;54.16
77281;BME280;66339;47.262;17.144;2023-05-17T11:47:06;100126.31;;;19.03;53.98
77281;BME280;66339;47.262;17.144;2023-05-17T11:49:37;100147.22;;;19.01;54.10
77281;BME280;66339;47.262;17.144;2023-05-17T11:52:04;100146.69;;;18.99;54.53
77281;BME280;66339;47.262;17.144;2023-05-17T11:54:38;100150.19;;;19.00;54.66
77281;BME280;66339;47.262;17.144;2023-05-17T11:57:05;100141.34;;;18.99;54.65
77281;BME280;66339;47.262;17.144;2023-05-17T11:59:40;100157.41;;;18.99;54.78
77281;BME280;66339;47.262;17.144;2023-05-17T12:02:10;100161.69;;;19.00;54.97
77281;BME280;66339;47.262;17.144;2023-05-17T12:04:55;100171.34;;;19.01;55.21
77281;BME280;66339;47.262;17.144;2023-05-17T12:07:25;100170.28;;;19.02;55.28
77281;BME280;66339;47.262;17.144;2023-05-17T12:09:52;100170.00;;;19.04;55.49
77281;BME280;66339;47.262;17.144;2023-05-17T12:12:19;100189.03;;;19.02;55.72
77281;BME280;66339;47.262;17.144;2023-05-17T12:14:47;100191.94;;;19.06;55.45
77281;BME280;66339;47.262;17.144;2023-05-17T12:17:20;100190.09;;;19.06;55.24
77281;BME280;66339;47.262;17.144;2023-05-17T12:19:52;100198.12;;;19.06;55.30
77281;BME280;66339;47.262;17.144;2023-05-17T12:22:20;100201.62;;;19.07;55.46
77281;BME280;66339;47.262;17.144;2023-05-17T12:24:50;100200.00;;;19.06;55.35
77281;BME280;66339;47.262;17.144;2023-05-17T12:27:24;100202.41;;;19.07;55.53
77281;BME280;66339;47.262;17.144;2023-05-17T12:29:54;100204.00;;;19.08;55.45
77281;BME280;66339;47.262;17.144;2023-05-17T12:32:22;100202.66;;;19.06;54.80
77281;BME280;66339;47.262;17.144;2023-05-17T12:34:56;100212.09;;;19.03;54.74
77281;BME280;66339;47.262;17.144;2023-05-17T12:37:24;100213.16;;;19.02;55.05
77281;BME280;66339;47.262;17.144;2023-05-17T12:39:55;100202.97;;;19.04;54.99
77281;BME280;66339;47.262;17.144;2023-05-17T12:42:27;100219.31;;;19.03;54.83
77281;BME280;66339;47.262;17.144;2023-05-17T12:44:58;100211.53;;;19.01;55.02
77281;BME280;66339;47.262;17.144;2023-05-17T12:47:32;100212.63;;;19.00;55.31
77281;BME280;66339;47.262;17.144;2023-05-17T12:50:02;100207.81;;;19.02;55.39
77281;BME280;66339;47.262;17.144;2023-05-17T12:52:33;100213.16;;;19.02;55.58
77281;BME280;66339;47.262;17.144;2023-05-17T12:55:02;100212.09;;;19.03;55.58
77281;BME280;66339;47.262;17.144;2023-05-17T12:57:32;100209.13;;;19.05;55.64
77281;BME280;66339;47.262;17.144;2023-05-17T13:00:04;100200.00;;;19.06;55.72
77281;BME280;66339;47.262;17.144;2023-05-17T13:02:35;100201.88;;;19.05;55.81
77281;BME280;66339;47.262;17.144;2023-05-17T13:05:13;100204.56;;;19.05;55.96
77281;BME280;66339;47.262;17.144;2023-05-17T13:07:40;100195.47;;;19.06;55.92
77281;BME280;66339;47.262;17.144;2023-05-17T13:10:20;100204.00;;;19.08;55.81
77281;BME280;66339;47.262;17.144;2023-05-17T13:12:55;100205.59;;;19.09;55.61
77281;BME280;66339;47.262;17.144;2023-05-17T13:17:54;100208.81;;;19.11;55.14
77281;BME280;66339;47.262;17.144;2023-05-17T13:20:30;100210.41;;;19.12;54.91
77281;BME280;66339;47.262;17.144;2023-05-17T13:22:58;100216.59;;;19.13;54.92
77281;BME280;66339;47.262;17.144;2023-05-17T13:25:28;100219.00;;;19.15;54.88